Time;durP1;ratioP1;P1;durP2;ratioP2;P2;SDS_P1;SDS_P2;PMS_P1;PMS_P2;Temp;Humidity;BMP_temperature;BMP_pressure;BME280_temperature;BME280_humidity;BME280_pressure;Samples;Min_cycle;Max_cycle;Signal;HPM_P1;HPM_P2
2022/03/11 06:18:47;;;;;;;26.00;3.25;;;;;;;;;;6026337;23;19918;-83
2022/03/11 06:21:14;;;;;;;34.72;3.85;;;;;;;;;;6035482;23;20374;-83
2022/03/11 06:23:40;;;;;;;23.35;2.70;;;;;;;;;;6037127;23;20470;-83
2022/03/11 06:26:07;;;;;;;25.75;3.22;;;;;;;;;;6036956;23;20027;-82
2022/03/11 06:28:34;;;;;;;28.83;3.40;;;;;;;;;;6037570;23;20078;-83
2022/03/11 06:31:01;;;;;;;25.27;2.90;;;;;;;;;;6037559;23;20545;-84
2022/03/11 06:33:27;;;;;;;23.35;3.15;;;;;;;;;;6035515;23;20079;-84
2022/03/11 06:35:54;;;;;;;27.00;3.20;;;;;;;;;;6037893;23;20051;-83
2022/03/11 06:38:20;;;;;;;34.38;3.30;;;;;;;;;;6037229;23;20047;-83
2022/03/11 06:40:49;;;;;;;36.33;3.65;;;;;;;;;;6036739;23;20027;-83
2022/03/11 06:43:17;;;;;;;33.67;3.25;;;;;;;;;;6036618;23;20493;-82
2022/03/11 06:45:44;;;;;;;33.07;3.60;;;;;;;;;;6037268;23;20566;-83
2022/03/11 06:48:11;;;;;;;40.85;4.15;;;;;;;;;;6036479;23;20247;-82
2022/03/11 06:50:38;;;;;;;27.80;3.25;;;;;;;;;;6037320;23;20111;-82
2022/03/11 06:53:04;;;;;;;30.77;3.15;;;;;;;;;;6036903;23;20036;-84
2022/03/11 06:55:31;;;;;;;24.67;3.03;;;;;;;;;;6037986;23;20079;-84
2022/03/11 06:57:59;;;;;;;36.67;3.20;;;;;;;;;;6037395;23;20027;-83
2022/03/11 07:00:26;;;;;;;37.28;3.67;;;;;;;;;;6036772;23;20028;-83
2022/03/11 07:02:53;;;;;;;44.97;3.95;;;;;;;;;;6035747;23;20079;-81
2022/03/11 07:05:20;;;;;;;26.30;3.20;;;;;;;;;;6036961;23;20057;-83
2022/03/11 07:07:46;;;;;;;23.10;3.28;;;;;;;;;;6037356;23;20399;-82
2022/03/11 07:10:16;;;;;;;22.85;2.80;;;;;;;;;;6036562;23;20027;-83
2022/03/11 07:12:43;;;;;;;27.00;3.75;;;;;;;;;;6037411;23;20071;-83
2022/03/11 07:15:09;;;;;;;24.10;2.97;;;;;;;;;;6036926;23;20020;-82
2022/03/11 07:17:36;;;;;;;27.80;3.00;;;;;;;;;;6030149;23;20036;-84
2022/03/11 07:20:04;;;;;;;25.33;3.63;;;;;;;;;;6007049;23;20371;-82
2022/03/11 07:22:34;;;;;;;21.77;2.90;;;;;;;;;;6005447;23;20038;-84
2022/03/11 07:25:02;;;;;;;25.52;3.67;;;;;;;;;;6002687;23;20031;-84
2022/03/11 07:27:29;;;;;;;19.25;2.35;;;;;;;;;;5974435;23;20096;-83
2022/03/11 07:29:57;;;;;;;19.60;2.38;;;;;;;;;;5975708;23;20032;-84
2022/03/11 07:32:24;;;;;;;22.00;2.28;;;;;;;;;;5999881;23;20103;-84
2022/03/11 07:34:51;;;;;;;15.82;1.90;;;;;;;;;;6001300;23;20084;-84
2022/03/11 07:37:18;;;;;;;18.23;1.80;;;;;;;;;;6001422;23;20415;-84
2022/03/11 07:39:44;;;;;;;17.73;1.95;;;;;;;;;;6001769;23;20032;-83
2022/03/11 07:42:12;;;;;;;17.80;2.10;;;;;;;;;;6001602;23;20032;-84
2022/03/11 07:44:41;;;;;;;12.55;2.22;;;;;;;;;;6003064;23;20087;-84
2022/03/11 07:47:07;;;;;;;15.70;1.85;;;;;;;;;;6002176;23;20030;-83
2022/03/11 07:49:34;;;;;;;13.68;1.80;;;;;;;;;;6003119;23;20430;-84
2022/03/11 07:52:02;;;;;;;16.95;2.75;;;;;;;;;;6003324;23;20486;-85
2022/03/11 07:54:29;;;;;;;25.30;2.15;;;;;;;;;;6002684;23;20024;-85
2022/03/11 07:56:55;;;;;;;20.73;2.10;;;;;;;;;;6002327;23;20028;-84
2022/03/11 07:59:22;;;;;;;25.85;2.50;;;;;;;;;;5977867;23;20416;-84
2022/03/11 08:01:49;;;;;;;16.40;2.10;;;;;;;;;;6001202;23;20428;-83
2022/03/11 08:04:16;;;;;;;20.40;2.35;;;;;;;;;;6001332;23;20026;-83
2022/03/11 08:06:43;;;;;;;19.15;2.47;;;;;;;;;;5976799;23;20032;-85
2022/03/11 08:09:10;;;;;;;27.33;6.15;;;;;;;;;;6001483;23;20031;-85
2022/03/11 08:11:37;;;;;;;26.15;5.57;;;;;;;;;;5975603;23;20027;-85
2022/03/11 08:14:04;;;;;;;24.52;5.65;;;;;;;;;;5976953;23;20034;-85
2022/03/11 08:16:30;;;;;;;22.52;3.88;;;;;;;;;;6002035;23;20039;-84
2022/03/11 08:18:58;;;;;;;19.80;3.17;;;;;;;;;;6000404;23;20035;-84
2022/03/11 08:21:25;;;;;;;18.75;2.78;;;;;;;;;;6001508;23;20092;-85
2022/03/11 08:23:52;;;;;;;29.50;3.00;;;;;;;;;;6002769;23;20027;-85
2022/03/11 08:26:18;;;;;;;27.15;2.92;;;;;;;;;;6002529;23;20087;-85
2022/03/11 08:28:45;;;;;;;23.10;2.75;;;;;;;;;;6003511;23;20423;-83
2022/03/11 08:31:32;;;;;;;19.25;2.58;;;;;;;;;;6002540;23;20063;-85
2022/03/11 08:33:59;;;;;;;25.75;2.35;;;;;;;;;;6003150;23;20078;-84
2022/03/11 08:36:26;;;;;;;23.88;2.88;;;;;;;;;;6001706;23;20035;-84
2022/03/11 08:38:54;;;;;;;24.70;3.03;;;;;;;;;;6002470;23;20098;-83
2022/03/11 08:41:22;;;;;;;22.23;2.35;;;;;;;;;;6002438;23;20032;-83
2022/03/11 08:43:49;;;;;;;35.17;3.45;;;;;;;;;;6003074;23;20482;-82
2022/03/11 08:46:16;;;;;;;29.92;3.50;;;;;;;;;;6002943;23;20131;-84
2022/03/11 08:48:46;;;;;;;33.72;4.55;;;;;;;;;;6003102;23;20032;-85
2022/03/11 08:51:12;;;;;;;40.40;3.30;;;;;;;;;;6002507;23;20024;-84
2022/03/11 08:53:39;;;;;;;34.40;4.93;;;;;;;;;;6004671;23;20080;-84
2022/03/11 08:56:06;;;;;;;34.15;5.80;;;;;;;;;;6002846;23;20172;-84
2022/03/11 08:58:33;;;;;;;35.58;4.53;;;;;;;;;;5980873;23;20096;-84
2022/03/11 09:00:59;;;;;;;33.92;4.15;;;;;;;;;;6005214;23;20550;-84
2022/03/11 09:03:26;;;;;;;46.25;4.20;;;;;;;;;;5979182;23;20028;-84
2022/03/11 09:05:53;;;;;;;33.80;3.97;;;;;;;;;;6004898;23;20020;-84
2022/03/11 09:08:21;;;;;;;47.13;4.63;;;;;;;;;;6003893;23;20024;-84
2022/03/11 09:10:47;;;;;;;41.65;4.43;;;;;;;;;;6005499;23;20087;-85
2022/03/11 09:13:14;;;;;;;42.13;4.75;;;;;;;;;;6004429;23;20080;-86
2022/03/11 09:15:41;;;;;;;46.72;5.28;;;;;;;;;;6005051;23;20127;-86
2022/03/11 09:18:10;;;;;;;45.85;6.10;;;;;;;;;;6004060;23;20107;-85
2022/03/11 09:20:37;;;;;;;45.67;6.03;;;;;;;;;;6005006;23;20023;-85
2022/03/11 09:23:05;;;;;;;51.10;6.25;;;;;;;;;;6004181;23;20030;-85
2022/03/11 09:25:31;;;;;;;31.90;4.10;;;;;;;;;;6004977;23;20028;-85
2022/03/11 09:28:05;;;;;;;38.05;4.75;;;;;;;;;;6004855;23;20023;-85
2022/03/11 09:30:31;;;;;;;36.58;5.15;;;;;;;;;;6004718;23;20042;-84
2022/03/11 09:32:58;;;;;;;27.00;3.97;;;;;;;;;;6004509;23;20083;-85
2022/03/11 09:35:25;;;;;;;24.23;2.90;;;;;;;;;;5979392;23;20083;-85
2022/03/11 09:37:52;;;;;;;23.92;3.70;;;;;;;;;;6004581;23;20024;-86
2022/03/11 09:40:19;;;;;;;21.20;3.50;;;;;;;;;;6003829;23;20023;-85
2022/03/11 09:42:46;;;;;;;15.55;2.60;;;;;;;;;;6002924;23;20031;-85
2022/03/11 09:45:13;;;;;;;16.65;2.08;;;;;;;;;;6004176;23;20504;-86
2022/03/11 09:47:41;;;;;;;13.27;1.63;;;;;;;;;;5979733;23;20028;-85
2022/03/11 09:50:08;;;;;;;14.38;1.98;;;;;;;;;;6003212;23;20111;-86
2022/03/11 09:52:35;;;;;;;9.90;2.03;;;;;;;;;;6004621;23;20068;-86
2022/03/11 09:55:06;;;;;;;9.75;1.67;;;;;;;;;;5980252;23;20052;-85
2022/03/11 09:57:34;;;;;;;15.73;1.92;;;;;;;;;;6003477;23;20762;-85
2022/03/11 10:00:00;;;;;;;19.67;2.45;;;;;;;;;;6004095;23;20427;-86
2022/03/11 10:02:27;;;;;;;14.20;2.25;;;;;;;;;;6003285;23;20079;-85
2022/03/11 10:04:58;;;;;;;19.75;2.78;;;;;;;;;;6004045;23;20914;-85
2022/03/11 10:07:56;;;;;;;11.95;2.28;;;;;;;;;;6004320;23;20617;-85
2022/03/11 10:10:23;;;;;;;14.32;2.33;;;;;;;;;;6004351;23;20060;-85
2022/03/11 10:13:07;;;;;;;18.38;2.72;;;;;;;;;;5982623;23;20035;-85
2022/03/11 10:15:34;;;;;;;18.25;2.85;;;;;;;;;;6004018;23;20051;-84
2022/03/11 10:18:03;;;;;;;17.00;2.35;;;;;;;;;;5995026;23;20027;-86
2022/03/11 10:20:31;;;;;;;19.58;3.30;;;;;;;;;;6032112;23;20083;-85
2022/03/11 10:22:57;;;;;;;14.88;2.60;;;;;;;;;;6031612;23;20023;-84
2022/03/11 10:25:28;;;;;;;23.10;3.05;;;;;;;;;;6032280;23;20082;-84
2022/03/11 10:28:12;;;;;;;20.20;4.32;;;;;;;;;;6030532;23;20108;-85
2022/03/11 10:30:41;;;;;;;24.85;4.03;;;;;;;;;;6030535;23;20034;-85
2022/03/11 10:33:11;;;;;;;19.27;2.90;;;;;;;;;;6032149;23;20026;-85
2022/03/11 10:35:47;;;;;;;26.80;3.55;;;;;;;;;;6032321;23;20090;-85
2022/03/11 10:38:17;;;;;;;44.50;4.55;;;;;;;;;;6032399;23;20409;-84
2022/03/11 10:41:05;;;;;;;36.95;3.88;;;;;;;;;;6033088;23;20035;-85
2022/03/11 10:43:32;;;;;;;29.77;4.07;;;;;;;;;;6032406;23;20031;-84
2022/03/11 10:46:02;;;;;;;24.55;3.20;;;;;;;;;;6033071;23;20058;-85
2022/03/11 10:48:44;;;;;;;20.55;2.78;;;;;;;;;;6030137;23;20019;-84
2022/03/11 10:51:33;;;;;;;24.63;3.65;;;;;;;;;;6031580;23;20022;-84
2022/03/11 10:54:01;;;;;;;26.70;3.25;;;;;;;;;;6030217;23;20023;-84
2022/03/11 10:56:35;;;;;;;21.02;2.17;;;;;;;;;;6029975;23;20031;-84
2022/03/11 10:59:27;;;;;;;15.02;2.13;;;;;;;;;;6031880;23;20031;-83
2022/03/11 11:01:57;;;;;;;11.85;1.92;;;;;;;;;;6031863;23;20090;-85
2022/03/11 11:04:26;;;;;;;12.70;2.00;;;;;;;;;;6031834;23;20051;-85
2022/03/11 11:06:53;;;;;;;22.35;2.47;;;;;;;;;;6032547;23;20082;-85
2022/03/11 11:09:23;;;;;;;18.73;3.70;;;;;;;;;;6032109;23;20019;-86
2022/03/11 11:11:51;;;;;;;20.30;2.50;;;;;;;;;;6032916;23;20027;-85
2022/03/11 11:14:18;;;;;;;19.60;2.75;;;;;;;;;;6030589;23;20585;-85
2022/03/11 11:16:46;;;;;;;24.30;2.60;;;;;;;;;;6031822;23;20030;-85
2022/03/11 11:19:15;;;;;;;;;;;;;;;;;;6005462;23;20681;-86
2022/03/11 11:21:45;;;;;;;23.98;3.67;;;;;;;;;;6004910;23;19922;-85
2022/03/11 11:24:14;;;;;;;34.97;4.32;;;;;;;;;;5980200;23;20028;-85
2022/03/11 11:26:45;;;;;;;;;;;;;;;;;;5980529;23;20035;-85
2022/03/11 11:29:12;;;;;;;;;;;;;;;;;;6005207;23;20358;-87
2022/03/11 11:31:41;;;;;;;;;;;;;;;;;;6005862;23;19922;-85
2022/03/11 11:34:24;;;;;;;;;;;;;;;;;;6005270;23;19922;-86
2022/03/11 11:36:50;;;;;;;;;;;;;;;;;;5982657;23;20261;-85
2022/03/11 11:39:17;;;;;;;;;;;;;;;;;;6004413;23;19926;-84
2022/03/11 11:41:50;;;;;;;;;;;;;;;;;;6005032;23;19974;-86
2022/03/11 11:44:17;;;;;;;;;;;;;;;;;;6004638;23;19997;-86
2022/03/11 11:47:03;;;;;;;;;;;;;;;;;;6005010;23;19970;-86
2022/03/11 11:49:40;;;;;;;;;;;;;;;;;;5980366;23;19930;-86
2022/03/11 11:52:11;;;;;;;;;;;;;;;;;;6004064;23;19977;-85
2022/03/11 11:54:39;;;;;;;;;;;;;;;;;;6005042;23;19926;-87
2022/03/11 11:57:07;;;;;;;;;;;;;;;;;;6004814;23;19922;-87
2022/03/11 11:59:38;;;;;;;;;;;;;;;;;;6005393;23;19918;-86
2022/03/11 12:02:28;;;;;;;;;;;;;;;;;;6004568;23;19918;-86
2022/03/11 12:04:55;;;;;;;;;;;;;;;;;;6004799;23;19921;-84
2022/03/11 12:07:41;;;;;;;;;;;;;;;;;;6004212;23;20342;-86
2022/03/11 12:10:21;;;;;;;;;;;;;;;;;;6003949;23;19926;-86
2022/03/11 12:12:48;;;;;;;;;;;;;;;;;;5979768;23;19922;-87
2022/03/11 12:15:16;;;;;;;;;;;;;;;;;;6003966;23;19989;-85
2022/03/11 12:17:43;;;;;;;;;;;;;;;;;;6003429;23;19922;-84
2022/03/11 12:20:28;;;;;;;;;;;;;;;;;;6002710;23;19918;-84
2022/03/11 12:22:58;;;;;;;;;;;;;;;;;;5978916;23;19925;-85
2022/03/11 12:25:26;;;;;;;;;;;;;;;;;;5978662;23;20314;-86
2022/03/11 12:28:01;;;;;;;;;;;;;;;;;;6003534;23;20820;-85
2022/03/11 12:30:29;;;;;;;;;;;;;;;;;;6003987;23;20250;-85
2022/03/11 12:32:58;;;;;;;;;;;;;;;;;;6004270;23;20397;-86
2022/03/11 12:35:25;;;;;;;;;;;;;;;;;;6004062;23;19918;-86
2022/03/11 12:37:51;;;;;;;;;;;;;;;;;;6004601;23;19918;-86
2022/03/11 12:40:22;;;;;;;;;;;;;;;;;;5978069;23;19942;-86
2022/03/11 12:42:49;;;;;;;;;;;;;;;;;;6003310;23;19974;-85
2022/03/11 12:45:32;;;;;;;;;;;;;;;;;;6002823;23;19993;-84
2022/03/11 12:47:58;;;;;;;;;;;;;;;;;;6000878;23;19922;-85
2022/03/11 12:50:26;;;;;;;;;;;;;;;;;;6000991;23;20377;-84
2022/03/11 12:52:59;;;;;;;;;;;;;;;;;;6003269;23;19982;-83
2022/03/11 12:55:30;;;;;;;;;;;;;;;;;;6002666;23;19922;-86
2022/03/11 12:57:58;;;;;;;;;;;;;;;;;;6003645;23;20034;-86
2022/03/11 13:00:32;;;;;;;;;;;;;;;;;;6002453;23;20349;-86
2022/03/11 13:02:59;;;;;;;;;;;;;;;;;;6002299;23;19918;-84
2022/03/11 13:05:27;;;;;;;;;;;;;;;;;;6001776;23;19929;-86
2022/03/11 13:07:59;;;;;;;;;;;;;;;;;;6003245;23;19926;-86
2022/03/11 13:10:26;;;;;;;;;;;;;;;;;;5999452;23;20413;-86
2022/03/11 13:12:53;;;;;;;;;;;;;;;;;;5999160;23;19922;-86
2022/03/11 13:15:22;;;;;;;;;;;;;;;;;;5995342;23;19926;-86
2022/03/11 13:18:12;;;;;;;;;;;;;;;;;;5988419;23;19929;-85
2022/03/11 13:20:45;;;;;;;;;;;;;;;;;;6016009;23;19922;-85
2022/03/11 13:23:13;;;;;;;;;;;;;;;;;;6029121;23;19992;-84
2022/03/11 13:25:41;;;;;;;;;;;;;;;;;;6053270;23;19921;-85
2022/03/11 13:28:08;;;;;;;;;;;;;;;;;;6030796;23;20294;-84
2022/03/11 13:30:36;;;;;;;;;;;;;;;;;;6030400;23;19989;-82
2022/03/11 13:33:14;;;;;;;;;;;;;;;;;;6028478;23;20365;-83
2022/03/11 13:35:41;;;;;;;;;;;;;;;;;;6030015;23;19925;-84
2022/03/11 13:38:08;;;;;;;;;;;;;;;;;;6030713;23;20385;-84
2022/03/11 13:40:48;;;;;;;;;;;;;;;;;;6032064;23;20372;-83
2022/03/11 13:43:20;;;;;;;;;;;;;;;;;;6032692;23;19965;-83
2022/03/11 13:45:50;;;;;;;;;;;;;;;;;;6033817;23;19977;-83
2022/03/11 13:48:18;;;;;;;;;;;;;;;;;;6032577;23;19918;-84
2022/03/11 13:50:44;;;;;;;;;;;;;;;;;;6032918;23;19922;-84
2022/03/11 13:53:11;;;;;;;;;;;;;;;;;;6030310;23;20317;-82
2022/03/11 13:55:38;;;;;;;;;;;;;;;;;;6031834;23;19945;-85
2022/03/11 13:58:26;;;;;;;;;;;;;;;;;;6032003;23;19922;-84
2022/03/11 14:00:54;;;;;;;;;;;;;;;;;;6022100;23;19921;-85
2022/03/11 14:03:21;;;;;;;;;;;;;;;;;;6026641;23;19917;-84
2022/03/11 14:05:49;;;;;;;;;;;;;;;;;;6030540;23;19988;-85
2022/03/11 14:08:23;;;;;;;;;;;;;;;;;;6031850;23;19921;-86
2022/03/11 14:10:50;;;;;;;;;;;;;;;;;;6031073;23;20400;-83
2022/03/11 14:13:20;;;;;;;;;;;;;;;;;;6023242;23;19922;-84
2022/03/11 14:15:48;;;;;;;;;;;;;;;;;;6031789;23;19921;-84
2022/03/11 14:18:18;;;;;;;;;;;;;;;;;;6018036;23;19929;-85
2022/03/11 14:21:05;;;;;;;;;;;;;;;;;;6000850;23;19978;-83
2022/03/11 14:23:33;;;;;;;;;;;;;;;;;;6003714;23;19925;-86
2022/03/11 14:25:59;;;;;;;;;;;;;;;;;;6005038;23;19947;-85
2022/03/11 14:28:26;;;;;;;;;;;;;;;;;;6004256;23;19978;-85
2022/03/11 14:30:53;;;;;;;;;;;;;;;;;;6004521;23;19922;-84
2022/03/11 14:33:19;;;;;;;;;;;;;;;;;;5979391;23;19926;-86
2022/03/11 14:35:47;;;;;;;;;;;;;;;;;;6004050;23;19922;-83
2022/03/11 14:38:13;;;;;;;;;;;;;;;;;;5993090;23;19918;-84
2022/03/11 14:40:40;;;;;;;;;;;;;;;;;;6004718;23;19922;-86
2022/03/11 14:43:07;;;;;;;;;;;;;;;;;;6001536;23;19918;-83
2022/03/11 14:45:34;;;;;;;;;;;;;;;;;;6004075;23;19989;-83
2022/03/11 14:48:20;;;;;;;;;;;;;;;;;;6002499;23;19946;-85
2022/03/11 14:50:47;;;;;;;;;;;;;;;;;;6003922;23;20258;-84
2022/03/11 14:53:13;;;;;;;;;;;;;;;;;;6003896;23;19929;-86
2022/03/11 14:55:40;;;;;;;;;;;;;;;;;;6004465;23;19922;-84
2022/03/11 14:58:07;;;;;;;;;;;;;;;;;;6004123;23;20208;-85
2022/03/11 15:00:34;;;;;;;;;;;;;;;;;;5979742;23;19925;-86
2022/03/11 15:03:05;;;;;;;;;;;;;;;;;;6004388;23;20381;-85
2022/03/11 15:05:35;;;;;;;;;;;;;;;;;;6004229;23;19978;-86
2022/03/11 15:08:02;;;;;;;;;;;;;;;;;;5979885;23;20281;-85
2022/03/11 15:10:29;;;;;;;;;;;;;;;;;;6003316;23;19993;-86
2022/03/11 15:12:55;;;;;;;;;;;;;;;;;;5979395;23;19976;-85
2022/03/11 15:15:23;;;;;;;;;;;;;;;;;;6004142;23;19977;-85
2022/03/11 15:17:49;;;;;;;;;;;;;;;;;;6004593;23;19974;-85
2022/03/11 15:20:16;;;;;;;;;;;;;;;;;;6003368;23;19947;-85
2022/03/11 15:22:46;;;;;;;;;;;;;;;;;;5979634;23;19918;-85
2022/03/11 15:25:16;;;;;;;;;;;;;;;;;;6003211;23;20310;-85
2022/03/11 15:27:42;;;;;;;;;;;;;;;;;;6004872;23;19929;-84
2022/03/11 15:30:09;;;;;;;;;;;;;;;;;;5978491;23;19922;-85
2022/03/11 15:32:36;;;;;;;;;;;;;;;;;;6003880;23;19978;-84
2022/03/11 15:35:03;;;;;;;;;;;;;;;;;;6004379;23;20698;-84
2022/03/11 15:37:30;;;;;;;;;;;;;;;;;;6003929;23;19926;-84
2022/03/11 15:39:56;;;;;;;;;;;;;;;;;;6004277;23;19946;-84
2022/03/11 15:42:24;;;;;;;;;;;;;;;;;;6003649;23;19944;-86
2022/03/11 15:44:50;;;;;;;;;;;;;;;;;;6004741;23;19947;-83
2022/03/11 15:47:17;;;;;;;;;;;;;;;;;;6003235;23;19979;-85
2022/03/11 15:49:43;;;;;;;;;;;;;;;;;;6004600;23;20642;-86
2022/03/11 15:52:11;;;;;;;;;;;;;;;;;;5978993;23;19922;-82
2022/03/11 15:54:38;;;;;;;;;;;;;;;;;;6004339;23;19977;-83
2022/03/11 15:57:04;;;;;;;;;;;;;;;;;;6003375;23;19950;-82
2022/03/11 15:59:30;;;;;;;;;;;;;;;;;;6003834;23;19922;-84
2022/03/11 16:02:01;;;;;;;;;;;;;;;;;;5979138;23;19982;-83
2022/03/11 16:04:27;;;;;;;;;;;;;;;;;;6003589;23;20405;-82
2022/03/11 16:06:54;;;;;;;;;;;;;;;;;;6004118;23;19922;-81
2022/03/11 16:09:20;;;;;;;;;;;;;;;;;;6003238;23;20041;-84
2022/03/11 16:11:47;;;;;;;;;;;;;;;;;;6004003;23;19926;-83
2022/03/11 16:14:13;;;;;;;;;;;;;;;;;;6003120;23;19918;-82
2022/03/11 16:17:00;;;;;;;;;;;;;;;;;;6003267;23;20013;-82
2022/03/11 16:19:27;;;;;;;;;;;;;;;;;;6026776;23;20349;-83
2022/03/11 16:21:54;;;;;;;;;;;;;;;;;;6032454;23;19918;-84
2022/03/11 16:24:20;;;;;;;;;;;;;;;;;;6031485;23;19918;-84
2022/03/11 16:26:55;;;;;;;;;;;;;;;;;;6030452;23;20380;-83
2022/03/11 16:29:21;;;;;;;;;;;;;;;;;;6032072;23;19918;-83
2022/03/11 16:31:48;;;;;;;;;;;;;;;;;;6032298;23;19929;-84
2022/03/11 16:34:29;;;;;;;;;;;;;;;;;;6030189;23;19984;-84
2022/03/11 16:36:55;;;;;;;;;;;;;;;;;;6031697;23;19918;-84
2022/03/11 16:39:22;;;;;;;;;;;;;;;;;;6031437;23;19917;-84
2022/03/11 16:41:49;;;;;;;;;;;;;;;;;;6032002;23;20242;-82
2022/03/11 16:44:16;;;;;;;;;;;;;;;;;;6029489;23;19921;-82
2022/03/11 16:46:42;;;;;;;;;;;;;;;;;;6030614;23;19989;-84
2022/03/11 16:49:09;;;;;;;;;;;;;;;;;;6031929;23;19926;-83
2022/03/11 16:51:35;;;;;;;;;;;;;;;;;;6031854;23;19918;-83
2022/03/11 16:54:02;;;;;;;;;;;;;;;;;;6030086;23;19922;-83
2022/03/11 16:56:34;;;;;;;;;;;;;;;;;;6030469;23;20380;-82
2022/03/11 16:59:01;;;;;;;;;;;;;;;;;;6031802;23;19918;-82
2022/03/11 17:01:34;;;;;;;;;;;;;;;;;;6031793;23;20000;-83
2022/03/11 17:04:02;;;;;;;;;;;;;;;;;;6032201;23;19918;-83
2022/03/11 17:06:29;;;;;;;;;;;;;;;;;;6031362;23;19922;-82
2022/03/11 17:08:55;;;;;;;;;;;;;;;;;;6032287;23;19974;-83
2022/03/11 17:11:22;;;;;;;;;;;;;;;;;;6031112;23;19921;-83
2022/03/11 17:13:51;;;;;;;;;;;;;;;;;;6031768;23;19922;-83
2022/03/11 17:16:18;;;;;;;;;;;;;;;;;;6033844;23;20261;-86
2022/03/11 17:18:45;;;;;;;;;;;;;;;;;;6032106;23;19928;-82
2022/03/11 17:21:12;;;;;;;;;;;;;;;;;;6033258;23;19921;-83
2022/03/11 17:23:38;;;;;;;;;;;;;;;;;;6033542;23;19918;-82
2022/03/11 17:26:06;;;;;;;;;;;;;;;;;;6030864;23;20410;-81
2022/03/11 17:28:57;;;;;;;;;;;;;;;;;;6033664;23;19978;-82
2022/03/11 17:31:24;;;;;;;;;;;;;;;;;;6030988;23;19925;-83
2022/03/11 17:33:50;;;;;;;;;;;;;;;;;;6033579;23;20099;-82
2022/03/11 17:36:19;;;;;;;;;;;;;;;;;;6032319;23;19926;-82
2022/03/11 17:38:46;;;;;;;;;;;;;;;;;;6033867;23;19922;-83
2022/03/11 17:41:15;;;;;;;;;;;;;;;;;;6033778;23;19922;-82
2022/03/11 17:43:42;;;;;;;;;;;;;;;;;;6033887;23;19922;-84
2022/03/11 17:46:08;;;;;;;;;;;;;;;;;;6054992;23;19924;-85
2022/03/11 17:48:36;;;;;;;;;;;;;;;;;;6034963;23;19918;-87
2022/03/11 17:51:03;;;;;;;;;;;;;;;;;;6032388;23;19929;-84
2022/03/11 17:53:30;;;;;;;;;;;;;;;;;;6033845;23;19930;-86
2022/03/11 17:55:59;;;;;;;;;;;;;;;;;;6034719;23;19925;-88
2022/03/11 17:58:26;;;;;;;;;;;;;;;;;;6033633;23;19929;-84
2022/03/11 18:00:52;;;;;;;;;;;;;;;;;;6033056;23;20754;-85
2022/03/11 18:03:19;;;;;;;;;;;;;;;;;;6031795;23;19928;-86
2022/03/11 18:05:46;;;;;;;;;;;;;;;;;;6033915;23;19973;-85
2022/03/11 18:08:13;;;;;;;;;;;;;;;;;;6034016;23;19921;-84
2022/03/11 18:10:40;;;;;;;;;;;;;;;;;;6033952;23;20349;-85
2022/03/11 18:13:08;;;;;;;;;;;;;;;;;;6033304;23;19922;-89
2022/03/11 18:15:34;;;;;;;;;;;;;;;;;;6034174;23;19918;-86
2022/03/11 18:18:01;;;;;;;;;;;;;;;;;;6023886;23;19927;-84
2022/03/11 18:20:28;;;;;;;;;;;;;;;;;;6003508;23;19918;-84
2022/03/11 18:22:54;;;;;;;;;;;;;;;;;;6004999;23;19918;-84
2022/03/11 18:25:21;;;;;;;;;;;;;;;;;;6003272;23;19922;-84
2022/03/11 18:27:48;;;;;;;;;;;;;;;;;;6004452;23;20390;-83
2022/03/11 18:30:16;;;;;;;;;;;;;;;;;;6004302;23;19923;-84
2022/03/11 18:32:43;;;;;;;;;;;;;;;;;;6004821;23;19974;-83
2022/03/11 18:35:10;;;;;;;;;;;;;;;;;;5978950;23;19950;-82
2022/03/11 18:37:36;;;;;;;;;;;;;;;;;;6004961;23;19982;-83
2022/03/11 18:40:05;;;;;;;;;;;;;;;;;;6005265;23;19954;-83
2022/03/11 18:42:32;;;;;;;;;;;;;;;;;;6004349;23;19978;-82
2022/03/11 18:45:00;;;;;;;;;;;;;;;;;;6004485;23;19925;-85
2022/03/11 18:47:26;;;;;;;;;;;;;;;;;;6003973;23;19998;-85
2022/03/11 18:49:53;;;;;;;;;;;;;;;;;;6005065;23;19974;-82
2022/03/11 18:52:20;;;;;;;;;;;;;;;;;;6004707;23;19922;-87
2022/03/11 18:54:46;;;;;;;;;;;;;;;;;;5980131;23;19950;-85
2022/03/11 18:57:13;;;;;;;;;;;;;;;;;;6004356;23;20319;-85
2022/03/11 18:59:40;;;;;;;;;;;;;;;;;;6003716;23;19922;-85
2022/03/11 19:02:07;;;;;;;;;;;;;;;;;;6003968;23;19918;-84
2022/03/11 19:04:33;;;;;;;;;;;;;;;;;;6004421;23;19922;-85
2022/03/11 19:07:01;;;;;;;;;;;;;;;;;;6004652;23;19922;-85
2022/03/11 19:09:27;;;;;;;;;;;;;;;;;;6004405;23;19974;-84
2022/03/11 19:11:55;;;;;;;;;;;;;;;;;;6004973;23;19978;-85
2022/03/11 19:14:22;;;;;;;;;;;;;;;;;;6003892;23;19922;-85
2022/03/11 19:16:50;;;;;;;;;;;;;;;;;;5980145;23;19922;-84
2022/03/11 19:19:17;;;;;;;;;;;;;;;;;;6003813;23;19918;-84
2022/03/11 19:21:47;;;;;;;;;;;;;;;;;;5979755;23;20500;-85
2022/03/11 19:24:15;;;;;;;;;;;;;;;;;;6004337;23;19922;-85
2022/03/11 19:26:42;;;;;;;;;;;;;;;;;;6004452;23;20001;-84
2022/03/11 19:29:09;;;;;;;;;;;;;;;;;;6004462;23;19970;-84
2022/03/11 19:31:44;;;;;;;;;;;;;;;;;;6004937;23;20318;-85
2022/03/11 19:34:14;;;;;;;;;;;;;;;;;;6004028;23;19926;-85
2022/03/11 19:36:41;;;;;;;;;;;;;;;;;;6004314;23;19951;-85
2022/03/11 19:39:08;;;;;;;;;;;;;;;;;;6003750;23;19994;-84
2022/03/11 19:41:39;;;;;;;;;;;;;;;;;;6004413;23;19970;-84
2022/03/11 19:44:06;;;;;;;;;;;;;;;;;;6004495;23;19951;-86
2022/03/11 19:46:33;;;;;;;;;;;;;;;;;;5979143;23;19974;-85
2022/03/11 19:49:00;;;;;;;;;;;;;;;;;;6004450;23;19947;-85
2022/03/11 19:51:27;;;;;;;;;;;;;;;;;;6004511;23;19977;-85
2022/03/11 19:53:54;;;;;;;;;;;;;;;;;;6004951;23;20349;-85
2022/03/11 19:56:21;;;;;;;;;;;;;;;;;;6003596;23;20333;-85
2022/03/11 19:58:48;;;;;;;;;;;;;;;;;;5979624;23;19918;-84
2022/03/11 20:01:15;;;;;;;;;;;;;;;;;;6002452;23;19930;-83
2022/03/11 20:03:42;;;;;;;;;;;;;;;;;;5979344;23;20369;-82
2022/03/11 20:06:08;;;;;;;;;;;;;;;;;;5978621;23;19922;-84
2022/03/11 20:08:36;;;;;;;;;;;;;;;;;;6002309;23;19922;-84
2022/03/11 20:11:08;;;;;;;;;;;;;;;;;;6003835;23;19978;-84
2022/03/11 20:13:35;;;;;;;;;;;;;;;;;;6002363;23;19970;-87
2022/03/11 20:16:05;;;;;;;;;;;;;;;;;;5978149;23;20326;-83
2022/03/11 20:18:32;;;;;;;;;;;;;;;;;;6003565;23;19917;-83
2022/03/11 20:21:01;;;;;;;;;;;;;;;;;;6030498;23;19950;-85
2022/03/11 20:23:28;;;;;;;;;;;;;;;;;;6031667;23;19917;-85
2022/03/11 20:25:55;;;;;;;;;;;;;;;;;;6031336;23;19973;-85
2022/03/11 20:28:21;;;;;;;;;;;;;;;;;;6032040;23;19921;-86
2022/03/11 20:30:48;;;;;;;;;;;;;;;;;;6032664;23;20349;-85
2022/03/11 20:33:15;;;;;;;;;;;;;;;;;;6032007;23;19969;-84
2022/03/11 20:35:42;;;;;;;;;;;;;;;;;;6033087;23;19978;-84
2022/03/11 20:38:08;;;;;;;;;;;;;;;;;;6031511;23;19918;-84
2022/03/11 20:40:54;;;;;;;;;;;;;;;;;;6032421;23;19989;-84
2022/03/11 20:43:21;;;;;;;;;;;;;;;;;;6031536;23;19921;-84
2022/03/11 20:45:48;;;;;;;;;;;;;;;;;;6032016;23;19922;-85
2022/03/11 20:48:15;;;;;;;;;;;;;;;;;;6032298;23;19944;-83
2022/03/11 20:50:42;;;;;;;;;;;;;;;;;;6034349;23;20001;-83
2022/03/11 20:53:09;;;;;;;;;;;;;;;;;;6033378;23;19922;-83
2022/03/11 20:55:36;;;;;;;;;;;;;;;;;;6032394;23;19922;-83
2022/03/11 20:58:04;;;;;;;;;;;;;;;;;;6033935;23;20254;-83
2022/03/11 21:00:32;;;;;;;;;;;;;;;;;;6033510;23;19970;-83
2022/03/11 21:03:05;;;;;;;;;;;;;;;;;;6032913;23;19921;-84
2022/03/11 21:05:35;;;;;;;;;;;;;;;;;;6033153;23;19921;-81
2022/03/11 21:08:02;;;;;;;;;;;;;;;;;;6034475;23;20353;-84
2022/03/11 21:10:29;;;;;;;;;;;;;;;;;;6032200;23;19929;-83
2022/03/11 21:12:56;;;;;;;;;;;;;;;;;;6034190;23;19925;-84
2022/03/11 21:15:30;;;;;;;;;;;;;;;;;;6033883;23;19929;-84
2022/03/11 21:17:57;;;;;;;;;;;;;;;;;;6025334;23;20017;-83
2022/03/11 21:20:25;;;;;;;;;;;;;;;;;;6005364;23;19926;-82
2022/03/11 21:22:54;;;;;;;;;;;;;;;;;;6004995;23;19918;-84
2022/03/11 21:25:21;;;;;;;;;;;;;;;;;;6005048;23;19922;-85
2022/03/11 21:27:49;;;;;;;;;;;;;;;;;;6005503;23;19926;-84
2022/03/11 21:30:15;;;;;;;;;;;;;;;;;;6005158;23;20361;-82
2022/03/11 21:32:42;;;;;;;;;;;;;;;;;;6005396;23;20338;-82
2022/03/11 21:35:09;;;;;;;;;;;;;;;;;;6003704;23;19975;-82
2022/03/11 21:37:36;;;;;;;;;;;;;;;;;;6005605;23;19922;-84
2022/03/11 21:40:04;;;;;;;;;;;;;;;;;;6006041;23;19922;-84
2022/03/11 21:42:30;;;;;;;;;;;;;;;;;;6004755;23;20044;-84
2022/03/11 21:44:57;;;;;;;;;;;;;;;;;;6005433;23;19922;-84
2022/03/11 21:47:24;;;;;;;;;;;;;;;;;;5980592;23;19922;-83
2022/03/11 21:49:50;;;;;;;;;;;;;;;;;;6005207;23;19977;-84
2022/03/11 21:52:17;;;;;;;;;;;;;;;;;;6004289;23;19919;-85
2022/03/11 21:54:43;;;;;;;;;;;;;;;;;;6005452;23;19922;-85
2022/03/11 21:57:11;;;;;;;;;;;;;;;;;;6004319;23;20328;-84
2022/03/11 21:59:38;;;;;;;;;;;;;;;;;;6005643;23;19957;-83
2022/03/11 22:02:07;;;;;;;;;;;;;;;;;;6003953;23;20000;-85
2022/03/11 22:04:34;;;;;;;;;;;;;;;;;;6005619;23;20009;-84
2022/03/11 22:07:02;;;;;;;;;;;;;;;;;;6005341;23;19918;-82
2022/03/11 22:09:28;;;;;;;;;;;;;;;;;;6005359;23;19918;-83
2022/03/11 22:11:55;;;;;;;;;;;;;;;;;;6005169;23;19918;-85
2022/03/11 22:14:24;;;;;;;;;;;;;;;;;;6004901;23;19985;-84
2022/03/11 22:16:51;;;;;;;;;;;;;;;;;;5980891;23;20006;-84
2022/03/11 22:19:18;;;;;;;;;;;;;;;;;;6004768;23;19951;-82
2022/03/11 22:21:45;;;;;;;;;;;;;;;;;;6004741;23;19921;-84
2022/03/11 22:24:12;;;;;;;;;;;;;;;;;;6003760;23;19918;-84
2022/03/11 22:26:40;;;;;;;;;;;;;;;;;;6005235;23;19918;-83